Time;durP1;ratioP1;P1;durP2;ratioP2;P2;SDS_P1;SDS_P2;PMS_P1;PMS_P2;Temp;Humidity;BMP_temperature;BMP_pressure;BME280_temperature;BME280_humidity;BME280_pressure;Samples;Min_cycle;Max_cycle;Signal;HPM_P1;HPM_P2
2021/06/09 00:01:30;;;;;;;18.47;15.73;;;20.20;99.90;;;;;;5089118;28;20515;-76
2021/06/09 00:04:00;;;;;;;15.90;14.27;;;20.20;99.90;;;;;;5089649;28;20998;-76
2021/06/09 00:06:27;;;;;;;18.20;15.63;;;20.20;93.00;;;;;;5088259;28;20996;-77
2021/06/09 00:08:55;;;;;;;19.53;17.43;;;20.10;99.90;;;;;;5090533;28;20520;-76
2021/06/09 00:11:23;;;;;;;18.40;16.43;;;20.10;99.90;;;;;;5087667;28;20473;-76
2021/06/09 00:13:50;;;;;;;18.63;16.73;;;20.10;8.40;;;;;;5090123;28;20545;-75
2021/06/09 00:16:20;;;;;;;17.60;15.80;;;20.10;99.90;;;;;;5088397;28;20469;-75
2021/06/09 00:18:48;;;;;;;18.67;15.73;;;20.10;95.50;;;;;;5089482;28;20450;-75
2021/06/09 00:21:18;;;;;;;21.20;17.67;;;20.10;1.00;;;;;;5089250;28;20449;-76
2021/06/09 00:23:46;;;;;;;16.80;15.00;;;20.00;99.90;;;;;;5090581;28;20454;-76
2021/06/09 00:26:17;;;;;;;18.97;17.00;;;19.90;1.00;;;;;;5087906;28;20833;-75
2021/06/09 00:28:46;;;;;;;20.13;17.37;;;19.80;1.00;;;;;;5088772;28;20542;-74
2021/06/09 00:31:14;;;;;;;18.07;16.17;;;19.80;99.90;;;;;;5090056;28;20457;-77
2021/06/09 00:33:42;;;;;;;22.40;17.50;;;19.70;99.90;;;;;;5088578;28;20475;-76
2021/06/09 00:36:10;;;;;;;20.17;16.73;;;19.60;99.90;;;;;;5087227;28;20522;-77
2021/06/09 00:38:39;;;;;;;17.77;15.70;;;19.50;1.00;;;;;;5085363;28;20489;-77
2021/06/09 00:41:08;;;;;;;22.70;20.17;;;19.40;1.00;;;;;;5089043;28;21054;-76
2021/06/09 00:43:36;;;;;;;23.13;18.83;;;19.50;1.00;;;;;;5090408;28;20468;-77
2021/06/09 00:46:06;;;;;;;19.00;16.83;;;19.60;99.90;;;;;;5089109;28;20470;-76
2021/06/09 00:48:36;;;;;;;19.70;17.60;;;19.60;99.90;;;;;;5090270;28;20923;-76
2021/06/09 00:51:06;;;;;;;17.50;15.60;;;19.60;99.90;;;;;;5090650;28;20472;-76
2021/06/09 00:53:35;;;;;;;20.10;17.43;;;19.60;99.90;;;;;;5090363;28;21027;-77
2021/06/09 00:56:07;;;;;;;23.33;17.63;;;19.60;99.90;;;;;;5089420;28;20483;-78
2021/06/09 00:58:35;;;;;;;17.80;15.90;;;19.70;99.90;;;;;;5088140;28;20450;-78
2021/06/09 01:01:03;;;;;;;19.20;16.27;;;19.70;99.90;;;;;;5089885;28;20489;-76
2021/06/09 01:03:32;;;;;;;17.73;15.90;;;19.70;90.60;;;;;;5089504;28;20450;-76
2021/06/09 01:05:59;;;;;;;19.63;15.83;;;19.70;1.00;;;;;;5088163;28;20469;-76
2021/06/09 01:08:27;;;;;;;17.10;15.30;;;19.70;1.00;;;;;;5089427;28;21038;-76
2021/06/09 01:10:55;;;;;;;16.83;15.07;;;19.70;99.90;;;;;;5086803;28;20481;-77
2021/06/09 01:13:28;;;;;;;15.67;14.00;;;19.70;1.00;;;;;;5090619;28;20469;-76
2021/06/09 01:15:56;;;;;;;15.57;13.87;;;19.70;99.90;;;;;;5086755;28;20472;-75
2021/06/09 01:18:24;;;;;;;14.93;13.33;;;19.70;1.00;;;;;;5088484;28;20458;-79
2021/06/09 01:20:52;;;;;;;17.07;14.97;;;19.70;99.90;;;;;;5087173;28;20554;-77
2021/06/09 01:23:21;;;;;;;14.60;13.10;;;19.60;99.90;;;;;;5089277;28;20451;-75
2021/06/09 01:25:50;;;;;;;16.20;14.57;;;19.60;1.00;;;;;;5089144;28;20474;-77
2021/06/09 01:28:18;;;;;;;15.13;13.57;;;19.60;99.90;;;;;;5085395;28;20454;-77
2021/06/09 01:30:46;;;;;;;17.17;13.50;;;19.50;37.90;;;;;;5086804;28;20452;-78
2021/06/09 01:33:15;;;;;;;15.10;13.50;;;19.50;37.50;;;;;;5086546;28;20594;-76
2021/06/09 01:35:43;;;;;;;16.07;14.53;;;19.50;38.80;;;;;;5088845;28;20491;-75
2021/06/09 01:38:11;;;;;;;15.00;13.40;;;19.50;99.90;;;;;;5087604;28;20506;-77
2021/06/09 01:40:40;;;;;;;14.27;12.30;;;19.50;99.90;;;;;;5087290;28;20488;-77
2021/06/09 01:43:08;;;;;;;14.07;12.63;;;19.40;1.00;;;;;;5089292;28;20429;-78
2021/06/09 01:45:38;;;;;;;14.80;12.90;;;19.40;10.90;;;;;;5087516;28;20509;-77
2021/06/09 01:48:07;;;;;;;13.07;11.20;;;19.40;1.00;;;;;;5087845;28;20487;-75
2021/06/09 01:50:36;;;;;;;13.77;12.50;;;19.40;1.00;;;;;;5088289;28;20472;-76
2021/06/09 01:53:05;;;;;;;14.03;12.53;;;19.30;99.90;;;;;;5086958;28;20502;-78
2021/06/09 01:55:35;;;;;;;13.20;11.90;;;19.30;99.90;;;;;;5084271;28;20469;-77
2021/06/09 01:58:04;;;;;;;12.57;11.37;;;19.30;1.00;;;;;;5067895;28;20525;-74
2021/06/09 02:00:34;;;;;;;14.07;12.67;;;19.30;1.00;;;;;;5086928;28;20800;-80
2021/06/09 02:03:02;;;;;;;13.93;12.53;;;19.30;1.00;;;;;;5085735;28;20461;-76
2021/06/09 02:05:32;;;;;;;13.60;12.20;;;19.30;99.90;;;;;;5084168;28;20484;-76
2021/06/09 02:08:03;;;;;;;13.83;12.43;;;19.30;99.90;;;;;;5086918;28;20438;-75
2021/06/09 02:10:31;;;;;;;12.27;11.07;;;19.30;1.00;;;;;;5103035;28;20824;-77
2021/06/09 02:13:01;;;;;;;13.63;12.23;;;19.30;1.00;;;;;;5087301;28;20692;-76
2021/06/09 02:15:30;;;;;;;15.10;11.33;;;19.30;99.90;;;;;;5089172;28;20495;-77
2021/06/09 02:18:08;;;;;;;12.00;10.70;;;19.30;1.00;;;;;;5084948;28;20464;-76
2021/06/09 02:20:38;;;;;;;12.23;11.13;;;19.30;37.60;;;;;;5089485;28;20452;-76
2021/06/09 02:23:09;;;;;;;12.17;11.00;;;19.30;99.90;;;;;;5089378;28;20954;-75
2021/06/09 02:25:40;;;;;;;12.13;10.97;;;19.30;1.00;;;;;;5088116;28;20532;-78
2021/06/09 02:28:08;;;;;;;13.20;11.90;;;19.30;1.00;;;;;;5085326;28;20453;-76
2021/06/09 02:30:37;;;;;;;13.47;12.07;;;19.30;97.10;;;;;;5085018;28;20825;-76
2021/06/09 02:33:05;;;;;;;14.20;12.00;;;19.30;1.00;;;;;;5088192;28;20952;-75
2021/06/09 02:35:36;;;;;;;15.03;12.57;;;19.30;1.00;;;;;;5088867;28;20511;-75
2021/06/09 02:38:05;;;;;;;12.17;10.90;;;19.30;37.50;;;;;;5087128;28;21051;-76
2021/06/09 02:40:38;;;;;;;12.77;11.67;;;19.30;39.60;;;;;;5086674;28;20460;-75
2021/06/09 02:43:07;;;;;;;12.50;11.37;;;19.20;1.00;;;;;;5068185;28;20442;-74
2021/06/09 02:45:36;;;;;;;11.43;10.40;;;19.30;1.00;;;;;;5087179;28;20481;-75
2021/06/09 02:48:07;;;;;;;13.10;11.90;;;19.20;1.00;;;;;;5086542;28;20696;-78
2021/06/09 02:50:36;;;;;;;14.30;13.00;;;19.20;37.30;;;;;;5088056;28;20510;-74
2021/06/09 02:53:09;;;;;;;12.90;11.37;;;19.20;99.90;;;;;;5076681;28;20975;-75
2021/06/09 02:55:53;;;;;;;13.87;11.80;;;19.20;1.00;;;;;;5086016;28;20477;-75
2021/06/09 02:58:28;;;;;;;11.30;10.17;;;19.20;1.00;;;;;;5084966;28;20453;-75
2021/06/09 03:01:03;;;;;;;12.30;11.10;;;19.30;51.90;;;;;;5086444;28;20460;-76
2021/06/09 03:03:41;;;;;;;11.80;10.33;;;19.20;99.90;;;;;;5084758;28;20489;-78
2021/06/09 03:06:17;;;;;;;12.23;10.97;;;19.20;99.90;;;;;;5087564;28;20896;-79
2021/06/09 03:08:58;;;;;;;12.20;10.90;;;19.10;99.90;;;;;;5087710;28;20875;-77
2021/06/09 03:11:31;;;;;;;12.07;10.97;;;19.20;1.00;;;;;;5086206;28;20469;-75
2021/06/09 03:14:16;;;;;;;12.83;11.53;;;19.20;99.90;;;;;;5087758;28;20549;-79
2021/06/09 03:16:50;;;;;;;11.80;10.60;;;19.20;69.00;;;;;;5086615;28;20479;-77
2021/06/09 03:19:20;;;;;;;11.53;10.40;;;19.20;99.90;;;;;;5086059;28;20456;-76
2021/06/09 03:21:53;;;;;;;14.17;12.00;;;19.10;99.90;;;;;;5086401;28;20883;-77
2021/06/09 03:24:28;;;;;;;11.73;10.63;;;19.10;1.00;;;;;;5086738;28;20863;-77
2021/06/09 03:26:58;;;;;;;13.00;11.70;;;19.20;99.90;;;;;;5101030;28;20468;-75
2021/06/09 03:29:35;;;;;;;13.80;12.30;;;19.10;99.90;;;;;;5085250;28;20984;-77
2021/06/09 03:32:08;;;;;;;12.90;11.50;;;19.10;99.90;;;;;;5084684;28;20468;-77
2021/06/09 03:34:40;;;;;;;12.90;11.50;;;19.10;99.90;;;;;;5086264;28;21065;-77
2021/06/09 03:37:10;;;;;;;12.60;11.40;;;19.10;99.90;;;;;;5086422;28;20473;-74
2021/06/09 03:39:41;;;;;;;12.23;11.10;;;19.10;99.90;;;;;;5086842;28;20449;-77
2021/06/09 03:42:11;;;;;;;11.37;10.27;;;19.10;99.90;;;;;;5082754;28;20842;-77
2021/06/09 03:44:44;;;;;;;11.80;10.60;;;19.10;1.00;;;;;;5088143;28;20456;-77
2021/06/09 03:47:16;;;;;;;11.50;10.30;;;19.20;1.00;;;;;;5090356;28;20466;-77
2021/06/09 03:49:45;;;;;;;13.93;11.33;;;19.20;99.90;;;;;;5088486;28;20863;-77
2021/06/09 03:52:13;;;;;;;11.40;10.30;;;19.10;99.90;;;;;;5087865;28;20485;-78
2021/06/09 03:54:44;;;;;;;12.50;11.20;;;19.10;99.90;;;;;;5086937;28;20480;-76
2021/06/09 03:57:12;;;;;;;11.67;10.57;;;19.10;1.00;;;;;;5119343;27;20462;-76
2021/06/09 03:59:41;;;;;;;11.40;10.27;;;19.10;99.90;;;;;;5090144;28;20498;-78
2021/06/09 04:02:09;;;;;;;11.13;10.00;;;19.10;99.90;;;;;;5083499;28;20538;-77
2021/06/09 04:04:39;;;;;;;12.17;11.07;;;19.10;99.90;;;;;;5086053;28;20464;-79
2021/06/09 04:07:08;;;;;;;10.90;9.80;;;19.10;99.90;;;;;;5087517;28;20458;-78
2021/06/09 04:09:38;;;;;;;12.10;9.97;;;19.10;99.90;;;;;;5087506;28;20867;-78
2021/06/09 04:12:10;;;;;;;11.90;10.77;;;19.10;99.90;;;;;;5089495;28;20520;-79
2021/06/09 04:14:40;;;;;;;12.93;10.80;;;19.10;99.90;;;;;;5089210;28;20549;-78
2021/06/09 04:17:09;;;;;;;11.60;10.10;;;19.10;99.90;;;;;;5090949;28;20506;-80
2021/06/09 04:19:42;;;;;;;14.63;11.00;;;19.10;99.90;;;;;;5087955;28;20475;-78
2021/06/09 04:22:10;;;;;;;12.83;11.60;;;19.10;1.00;;;;;;5090562;28;20459;-80
2021/06/09 04:24:39;;;;;;;10.97;9.87;;;19.10;99.90;;;;;;5087577;28;20445;-77
2021/06/09 04:27:15;;;;;;;11.30;10.27;;;19.10;99.90;;;;;;5085987;28;20530;-77
2021/06/09 04:29:44;;;;;;;11.33;10.07;;;19.00;53.70;;;;;;5094285;28;20445;-78
2021/06/09 04:32:12;;;;;;;13.20;11.80;;;19.00;99.90;;;;;;5089349;28;20848;-80
2021/06/09 04:34:46;;;;;;;11.10;10.00;;;19.10;99.90;;;;;;5089039;28;21196;-77
2021/06/09 04:37:14;;;;;;;12.17;10.87;;;19.10;1.00;;;;;;5087136;28;20467;-78
2021/06/09 04:39:42;;;;;;;13.23;10.93;;;19.10;1.00;;;;;;5089520;28;20510;-77
2021/06/09 04:42:10;;;;;;;11.60;10.53;;;19.10;99.90;;;;;;5090096;28;20462;-75
2021/06/09 04:44:40;;;;;;;12.20;10.73;;;19.10;1.00;;;;;;5086132;28;20456;-75
2021/06/09 04:47:08;;;;;;;13.33;12.03;;;19.00;1.80;;;;;;5088063;28;20464;-79
2021/06/09 04:49:38;;;;;;;12.70;11.40;;;19.00;1.00;;;;;;5093947;28;20446;-76
2021/06/09 04:52:08;;;;;;;12.37;11.17;;;19.10;99.90;;;;;;5089422;28;20484;-78
2021/06/09 04:54:37;;;;;;;11.77;10.67;;;19.10;1.00;;;;;;5092701;28;20485;-77
2021/06/09 04:57:06;;;;;;;12.70;11.43;;;19.20;99.90;;;;;;5090165;28;20980;-77
2021/06/09 04:59:34;;;;;;;12.80;11.50;;;19.20;99.90;;;;;;5090461;28;20458;-76
2021/06/09 05:02:02;;;;;;;13.37;11.20;;;19.20;1.00;;;;;;5094433;28;20449;-78
2021/06/09 05:04:30;;;;;;;12.30;11.10;;;19.10;1.00;;;;;;5093455;28;20437;-77
2021/06/09 05:06:58;;;;;;;12.13;11.07;;;19.10;99.90;;;;;;5090958;28;21030;-79
2021/06/09 05:09:27;;;;;;;12.63;11.33;;;19.10;99.90;;;;;;5089976;28;20441;-76
2021/06/09 05:12:01;;;;;;;12.50;11.27;;;19.20;99.90;;;;;;5077200;28;20469;-76
2021/06/09 05:14:35;;;;;;;12.03;10.93;;;19.20;99.90;;;;;;5084354;28;20486;-77
2021/06/09 05:17:04;;;;;;;11.30;10.17;;;19.20;99.90;;;;;;5086437;28;20465;-76
2021/06/09 05:19:34;;;;;;;14.13;11.10;;;19.20;99.90;;;;;;5077471;28;20485;-81
2021/06/09 05:22:05;;;;;;;12.90;11.50;;;19.30;1.00;;;;;;5096358;28;20446;-76
2021/06/09 05:24:35;;;;;;;11.53;10.13;;;19.20;1.00;;;;;;5086637;28;20453;-80
2021/06/09 05:27:04;;;;;;;12.40;11.20;;;19.30;99.90;;;;;;5082982;28;20475;-77
2021/06/09 05:29:33;;;;;;;12.37;11.17;;;19.30;1.00;;;;;;5077390;28;20460;-76
2021/06/09 05:32:03;;;;;;;13.57;12.17;;;19.30;1.00;;;;;;5114033;27;20860;-76
2021/06/09 05:34:34;;;;;;;14.60;13.10;;;19.40;1.00;;;;;;5086070;28;20527;-76
2021/06/09 05:37:02;;;;;;;12.60;11.40;;;19.40;99.90;;;;;;5078101;28;20529;-76
2021/06/09 05:39:30;;;;;;;24.50;11.43;;;19.50;99.90;;;;;;5085223;28;20457;-77
2021/06/09 05:41:59;;;;;;;12.90;11.60;;;19.50;99.90;;;;;;5074095;28;20450;-81
2021/06/09 05:44:29;;;;;;;13.37;12.00;;;19.50;99.90;;;;;;5085858;28;20442;-77
2021/06/09 05:46:59;;;;;;;13.00;11.70;;;19.50;86.60;;;;;;5079722;28;20474;-81
2021/06/09 05:49:27;;;;;;;13.70;12.30;;;19.50;1.00;;;;;;5088797;28;20453;-80
2021/06/09 05:51:55;;;;;;;13.80;12.13;;;19.60;1.00;;;;;;5085969;28;20531;-75
2021/06/09 05:54:23;;;;;;;14.37;12.73;;;19.60;1.00;;;;;;5096223;28;20478;-78
2021/06/09 05:56:51;;;;;;;14.50;13.03;;;19.60;1.00;;;;;;5083496;28;20529;-77
2021/06/09 05:59:20;;;;;;;15.70;14.03;;;19.60;99.90;;;;;;5079120;28;20801;-79
2021/06/09 06:01:50;;;;;;;14.43;13.03;;;19.60;99.90;;;;;;5076051;28;20453;-76
2021/06/09 06:04:18;;;;;;;15.17;13.57;;;19.70;16.50;;;;;;5120415;27;20488;-79
2021/06/09 06:06:48;;;;;;;13.13;11.83;;;19.80;99.90;;;;;;5082710;28;20461;-76
2021/06/09 06:09:17;;;;;;;15.13;13.47;;;19.80;99.90;;;;;;5076770;28;20447;-79
2021/06/09 06:11:46;;;;;;;12.90;11.60;;;19.80;99.90;;;;;;5080600;28;20458;-77
2021/06/09 06:14:14;;;;;;;14.13;12.57;;;19.80;99.90;;;;;;5081128;28;20996;-78
2021/06/09 06:16:51;;;;;;;15.97;14.40;;;19.90;99.90;;;;;;5116984;27;20488;-80
2021/06/09 06:19:19;;;;;;;13.83;12.43;;;19.90;99.90;;;;;;5083840;28;20454;-77
2021/06/09 06:21:48;;;;;;;14.17;12.77;;;20.00;99.90;;;;;;5086074;28;20462;-77
2021/06/09 06:24:17;;;;;;;14.57;13.00;;;20.00;79.90;;;;;;5084743;28;20473;-77
2021/06/09 06:26:46;;;;;;;13.73;12.30;;;20.10;1.00;;;;;;5088805;28;20573;-81
2021/06/09 06:29:15;;;;;;;15.03;13.53;;;20.10;99.90;;;;;;5086191;28;20465;-77
2021/06/09 06:31:43;;;;;;;14.87;13.37;;;20.10;99.90;;;;;;5089339;28;20457;-79
2021/06/09 06:34:17;;;;;;;15.00;13.60;;;20.10;99.90;;;;;;5075370;28;20453;-77
2021/06/09 06:36:45;;;;;;;14.50;13.10;;;20.10;99.90;;;;;;5085763;28;20509;-76
2021/06/09 06:39:13;;;;;;;14.97;13.50;;;20.20;1.00;;;;;;5084156;28;20451;-77
2021/06/09 06:41:41;;;;;;;17.20;13.43;;;20.30;99.90;;;;;;5086093;28;20502;-77
2021/06/09 06:44:09;;;;;;;14.90;13.17;;;20.30;99.90;;;;;;5088764;28;20448;-77
2021/06/09 06:46:36;;;;;;;12.70;11.50;;;20.40;99.90;;;;;;5087422;28;20914;-77
2021/06/09 06:49:04;;;;;;;13.53;12.13;;;20.40;99.90;;;;;;5082541;28;21229;-77
2021/06/09 06:51:34;;;;;;;14.23;12.83;;;20.40;99.90;;;;;;5083671;28;20495;-78
2021/06/09 06:54:02;;;;;;;13.43;12.17;;;20.50;99.90;;;;;;5085547;28;20699;-78
2021/06/09 06:56:30;;;;;;;14.43;12.30;;;20.60;99.90;;;;;;5086722;28;20988;-77
2021/06/09 06:58:57;;;;;;;12.13;10.93;;;20.60;99.90;;;;;;5083101;28;20457;-80
2021/06/09 07:01:30;;;;;;;13.70;11.73;;;20.80;1.00;;;;;;5087318;28;20465;-77
2021/06/09 07:03:59;;;;;;;14.43;13.07;;;20.90;99.90;;;;;;5083803;28;20473;-79
2021/06/09 07:06:27;;;;;;;14.83;12.60;;;21.00;99.90;;;;;;5078649;28;20968;-79
2021/06/09 07:09:11;;;;;;;13.30;11.90;;;21.10;1.00;;;;;;5080736;28;21002;-80
2021/06/09 07:11:44;;;;;;;13.60;12.17;;;21.20;99.90;;;;;;5078809;28;20474;-79
2021/06/09 07:14:13;;;;;;;13.00;11.70;;;21.20;99.90;;;;;;5085517;28;20441;-79
2021/06/09 07:16:44;;;;;;;12.33;11.17;;;21.30;99.90;;;;;;5088127;28;20501;-77
2021/06/09 07:19:12;;;;;;;15.30;13.30;;;21.30;99.90;;;;;;5079696;28;20473;-79
2021/06/09 07:21:40;;;;;;;13.67;12.47;;;21.40;99.90;;;;;;5090714;28;20507;-77
2021/06/09 07:24:10;;;;;;;14.27;12.93;;;21.50;99.90;;;;;;5083087;28;20859;-80
2021/06/09 07:26:41;;;;;;;15.53;14.07;;;21.50;99.90;;;;;;5084830;28;21203;-77
2021/06/09 07:29:10;;;;;;;12.57;11.37;;;21.50;1.00;;;;;;5085262;28;20488;-81
2021/06/09 07:31:43;;;;;;;14.60;13.20;;;21.60;1.00;;;;;;5078606;28;20523;-77
2021/06/09 07:34:11;;;;;;;13.70;11.87;;;21.60;99.90;;;;;;5082217;28;20452;-76
2021/06/09 07:36:43;;;;;;;13.47;12.17;;;21.60;99.90;;;;;;5084431;28;20493;-80
2021/06/09 07:39:19;;;;;;;12.70;11.40;;;21.70;99.90;;;;;;5089010;28;20455;-79
2021/06/09 07:41:48;;;;;;;12.80;11.60;;;21.70;99.90;;;;;;5087944;28;20502;-80
2021/06/09 07:44:18;;;;;;;12.60;11.40;;;21.70;42.10;;;;;;5088138;28;20511;-82
2021/06/09 07:46:49;;;;;;;15.10;13.60;;;21.70;99.90;;;;;;5086179;28;20473;-80
2021/06/09 07:49:20;;;;;;;13.40;12.20;;;21.80;99.90;;;;;;5084447;28;20481;-79
2021/06/09 07:51:49;;;;;;;14.77;13.20;;;21.80;1.00;;;;;;5086470;28;20477;-76
2021/06/09 07:54:19;;;;;;;14.80;13.30;;;21.80;99.90;;;;;;5076249;28;20450;-78
2021/06/09 07:56:48;;;;;;;13.43;12.13;;;21.80;99.90;;;;;;5083446;28;20490;-78
2021/06/09 07:59:20;;;;;;;15.47;13.97;;;21.90;1.00;;;;;;5082841;28;20449;-81
2021/06/09 08:01:48;;;;;;;15.67;13.50;;;21.90;99.90;;;;;;5085788;28;20562;-80
2021/06/09 08:04:16;;;;;;;13.70;12.40;;;21.90;99.90;;;;;;5082649;28;20556;-77
2021/06/09 08:06:44;;;;;;;14.50;13.00;;;21.90;99.90;;;;;;5086636;28;20567;-80
2021/06/09 08:09:15;;;;;;;14.30;12.80;;;21.90;99.90;;;;;;5087782;28;20486;-78
2021/06/09 08:11:44;;;;;;;14.57;13.13;;;21.90;1.00;;;;;;5089971;28;20660;-79
2021/06/09 08:14:16;;;;;;;14.37;13.07;;;21.90;99.90;;;;;;5080837;28;20866;-81
2021/06/09 08:16:44;;;;;;;13.90;12.57;;;22.00;99.90;;;;;;5083848;28;20488;-80
2021/06/09 08:19:11;;;;;;;14.53;13.03;;;22.00;92.80;;;;;;5082490;28;20473;-78
2021/06/09 08:21:39;;;;;;;14.07;12.60;;;22.00;99.90;;;;;;5088278;28;20512;-83
2021/06/09 08:24:08;;;;;;;12.70;11.43;;;22.00;99.90;;;;;;5091611;28;20460;-79
2021/06/09 08:26:36;;;;;;;14.30;12.90;;;22.10;99.90;;;;;;5084488;28;20537;-79
2021/06/09 08:29:07;;;;;;;14.27;12.83;;;22.10;99.90;;;;;;5077501;28;20831;-81
2021/06/09 08:31:37;;;;;;;12.63;11.40;;;22.20;1.00;;;;;;5080290;28;20505;-79
2021/06/09 08:34:08;;;;;;;12.30;11.20;;;22.20;99.90;;;;;;5081938;28;20481;-81
2021/06/09 08:36:39;;;;;;;13.73;12.50;;;22.30;99.10;;;;;;5080189;28;20558;-78
2021/06/09 08:39:07;;;;;;;13.17;11.87;;;22.40;31.00;;;;;;5083073;28;20452;-80
2021/06/09 08:41:39;;;;;;;13.30;12.00;;;22.40;1.00;;;;;;5071215;28;20456;-79
2021/06/09 08:44:09;;;;;;;14.30;12.90;;;22.50;99.90;;;;;;5076805;28;20488;-78
2021/06/09 08:46:37;;;;;;;12.10;10.90;;;22.50;3.20;;;;;;5086887;28;20476;-79
2021/06/09 08:49:05;;;;;;;13.00;11.80;;;22.60;1.00;;;;;;5082941;28;20452;-78
2021/06/09 08:51:34;;;;;;;12.53;11.40;;;22.50;1.00;;;;;;5083552;28;20790;-79
2021/06/09 08:54:04;;;;;;;12.77;11.57;;;22.60;99.90;;;;;;5083757;28;20459;-79
2021/06/09 08:56:32;;;;;;;14.27;12.87;;;22.70;1.00;;;;;;5075574;28;20489;-78
2021/06/09 08:59:00;;;;;;;13.53;12.33;;;22.70;99.90;;;;;;5083855;28;20469;-80
2021/06/09 09:01:31;;;;;;;12.90;11.70;;;22.80;1.90;;;;;;5087280;28;20527;-79
2021/06/09 09:04:02;;;;;;;12.90;11.63;;;22.90;80.40;;;;;;5077721;28;20540;-78
2021/06/09 09:06:30;;;;;;;12.13;11.03;;;22.90;1.00;;;;;;5084950;28;20477;-78
2021/06/09 09:08:58;;;;;;;13.27;12.00;;;22.90;99.90;;;;;;5087938;28;20472;-80
2021/06/09 09:11:26;;;;;;;12.77;11.47;;;23.00;99.90;;;;;;5081512;28;20522;-79
2021/06/09 09:13:53;;;;;;;14.00;12.10;;;23.00;99.90;;;;;;5082152;28;20457;-78
2021/06/09 09:16:21;;;;;;;13.27;12.07;;;23.00;1.00;;;;;;5085133;28;20485;-80
2021/06/09 09:18:57;;;;;;;12.07;11.07;;;23.00;99.90;;;;;;5084512;28;20451;-80
2021/06/09 09:21:40;;;;;;;12.47;11.20;;;23.10;1.00;;;;;;5082210;28;20459;-79
2021/06/09 09:24:09;;;;;;;12.10;11.03;;;23.20;1.00;;;;;;5082524;28;21125;-80
2021/06/09 09:26:38;;;;;;;11.60;10.50;;;23.20;99.90;;;;;;5089919;28;20458;-79
2021/06/09 09:29:15;;;;;;;11.80;10.80;;;23.20;99.90;;;;;;5084227;28;20514;-79
2021/06/09 09:31:51;;;;;;;12.17;11.07;;;23.30;99.90;;;;;;5082997;28;20455;-81
2021/06/09 09:34:40;;;;;;;11.47;10.40;;;23.40;99.90;;;;;;5080219;28;20477;-79
2021/06/09 09:37:14;;;;;;;11.70;10.70;;;23.40;1.00;;;;;;5082827;28;21073;-81
2021/06/09 09:39:45;;;;;;;12.20;11.00;;;23.50;1.00;;;;;;5080124;28;20459;-82
2021/06/09 09:42:33;;;;;;;11.40;10.43;;;23.50;1.00;;;;;;5084352;28;20487;-81
2021/06/09 09:45:23;;;;;;;12.40;11.10;;;23.40;1.00;;;;;;5086239;28;20477;-81
2021/06/09 09:48:09;;;;;;;10.23;9.43;;;23.50;99.90;;;;;;5083087;28;20450;-80
2021/06/09 09:50:40;;;;;;;11.07;9.97;;;23.50;99.90;;;;;;5079970;28;20456;-79
2021/06/09 09:53:25;;;;;;;12.10;11.10;;;23.60;19.50;;;;;;5083352;28;20465;-80
2021/06/09 09:56:01;;;;;;;11.50;10.40;;;23.60;1.00;;;;;;5085278;28;20570;-80
2021/06/09 09:58:31;;;;;;;11.67;10.67;;;23.60;99.90;;;;;;5084466;28;20457;-79
2021/06/09 10:01:09;;;;;;;12.73;11.20;;;23.60;99.90;;;;;;5086241;28;20453;-81
2021/06/09 10:03:39;;;;;;;10.70;9.80;;;23.60;99.90;;;;;;5075430;28;20461;-82
2021/06/09 10:06:19;;;;;;;10.53;9.63;;;23.60;99.90;;;;;;5078743;28;20476;-82
2021/06/09 10:08:47;;;;;;;10.50;9.50;;;23.70;99.90;;;;;;5076894;28;20870;-81
2021/06/09 10:11:17;;;;;;;9.23;8.43;;;23.80;99.90;;;;;;5075463;28;20470;-81
2021/06/09 10:13:46;;;;;;;10.43;9.37;;;23.80;99.90;;;;;;5084457;28;20449;-82
2021/06/09 10:16:28;;;;;;;9.43;8.07;;;23.90;99.90;;;;;;5077105;28;20550;-79
2021/06/09 10:19:06;;;;;;;8.57;7.77;;;23.90;99.90;;;;;;5083363;28;20449;-78
2021/06/09 10:21:43;;;;;;;9.07;8.27;;;24.00;6.00;;;;;;5082503;28;20838;-82
2021/06/09 10:24:12;;;;;;;8.97;8.17;;;24.00;50.90;;;;;;5081340;28;20483;-79
2021/06/09 10:26:44;;;;;;;9.17;8.37;;;24.10;45.00;;;;;;5101294;28;20466;-79
2021/06/09 10:29:14;;;;;;;8.37;7.67;;;24.10;1.00;;;;;;5073626;28;20457;-81
2021/06/09 10:31:44;;;;;;;8.33;7.67;;;24.10;1.00;;;;;;5083272;28;20922;-76
2021/06/09 10:34:13;;;;;;;8.70;7.80;;;24.10;1.00;;;;;;5085388;28;20453;-81
2021/06/09 10:36:45;;;;;;;9.60;8.20;;;24.10;1.00;;;;;;5081498;28;20477;-81
2021/06/09 10:39:14;;;;;;;9.13;8.43;;;24.10;1.00;;;;;;5079452;28;20453;-81
2021/06/09 10:41:44;;;;;;;8.80;8.00;;;24.20;18.00;;;;;;5083278;28;20512;-80
2021/06/09 10:44:17;;;;;;;8.90;8.10;;;24.20;27.10;;;;;;5086555;28;20466;-79
2021/06/09 10:46:47;;;;;;;9.40;8.70;;;24.30;1.00;;;;;;5079210;28;20458;-81
2021/06/09 10:49:17;;;;;;;10.13;9.13;;;24.30;1.00;;;;;;5076757;28;20629;-82
2021/06/09 10:51:48;;;;;;;8.23;7.63;;;24.40;1.00;;;;;;5084443;28;20442;-81
2021/06/09 10:54:17;;;;;;;9.83;7.30;;;24.50;1.00;;;;;;5086796;28;20454;-83
2021/06/09 10:56:46;;;;;;;8.27;7.53;;;24.50;1.00;;;;;;5081223;28;20950;-80
2021/06/09 10:59:15;;;;;;;7.83;7.00;;;24.50;1.00;;;;;;5083565;28;20465;-79
2021/06/09 11:01:44;;;;;;;8.50;7.70;;;24.50;1.00;;;;;;5089303;28;21029;-78
2021/06/09 11:04:12;;;;;;;8.63;7.93;;;24.50;1.00;;;;;;5119819;27;20468;-76
2021/06/09 11:06:45;;;;;;;6.77;6.17;;;24.50;1.00;;;;;;5088074;28;20492;-78
2021/06/09 11:09:26;;;;;;;7.73;7.13;;;24.50;1.00;;;;;;5085662;28;20679;-78
2021/06/09 11:12:16;;;;;;;7.47;6.77;;;24.60;1.00;;;;;;5081515;28;20460;-77
2021/06/09 11:14:46;;;;;;;7.97;7.27;;;24.60;1.00;;;;;;5084503;28;20448;-79
2021/06/09 11:17:15;;;;;;;9.20;7.97;;;24.60;1.00;;;;;;5077669;28;20477;-81
2021/06/09 11:19:46;;;;;;;66.70;31.97;;;24.60;1.00;;;;;;5079518;28;20474;-78
2021/06/09 11:22:19;;;;;;;10.10;8.53;;;24.70;1.00;;;;;;5081939;28;20478;-79
2021/06/09 11:25:14;;;;;;;9.77;8.77;;;24.70;1.00;;;;;;5083085;28;20504;-80
2021/06/09 11:28:05;;;;;;;9.53;8.50;;;24.70;1.00;;;;;;5087538;28;20434;-79
2021/06/09 11:30:44;;;;;;;17.13;8.93;;;24.70;1.00;;;;;;5081765;28;20513;-80
2021/06/09 11:33:47;;;;;;;9.27;7.60;;;24.70;1.00;;;;;;5079523;28;20439;-78
2021/06/09 11:36:41;;;;;;;8.60;7.27;;;24.70;99.90;;;;;;5083884;28;20715;-80
2021/06/09 11:39:21;;;;;;;8.10;7.40;;;24.70;1.00;;;;;;5079350;28;21233;-79
2021/06/09 11:41:51;;;;;;;6.97;6.37;;;24.70;99.90;;;;;;5091872;28;20803;-81
2021/06/09 11:44:27;;;;;;;8.20;7.43;;;24.70;1.00;;;;;;5091465;28;20445;-78
2021/06/09 11:47:17;;;;;;;9.97;8.07;;;24.70;99.90;;;;;;5082640;28;20473;-80
2021/06/09 11:49:47;;;;;;;9.63;8.83;;;24.70;99.90;;;;;;5082641;28;20484;-80
2021/06/09 11:52:15;;;;;;;8.00;7.30;;;24.80;1.00;;;;;;5091823;28;20470;-81
2021/06/09 11:54:43;;;;;;;8.30;7.50;;;24.80;1.00;;;;;;5094699;28;20449;-79
2021/06/09 11:57:18;;;;;;;8.47;7.77;;;24.80;1.00;;;;;;5082788;28;20568;-76
2021/06/09 12:00:04;;;;;;;9.10;7.70;;;24.80;1.00;;;;;;5079921;28;21094;-81
2021/06/09 12:02:31;;;;;;;9.03;8.33;;;24.80;1.00;;;;;;5078405;28;20662;-79
2021/06/09 12:05:02;;;;;;;9.70;7.60;;;24.80;99.90;;;;;;5078500;28;20450;-78
2021/06/09 12:07:31;;;;;;;9.83;8.80;;;24.80;1.00;;;;;;5089404;28;20929;-81
2021/06/09 12:10:04;;;;;;;8.87;8.00;;;24.80;1.00;;;;;;5079125;28;20449;-81
2021/06/09 12:12:35;;;;;;;11.40;7.70;;;24.80;99.90;;;;;;5112078;27;20449;-84
2021/06/09 12:15:06;;;;;;;8.87;8.00;;;24.90;1.00;;;;;;5082121;28;21108;-82
2021/06/09 12:17:36;;;;;;;8.30;7.53;;;24.90;1.00;;;;;;5082675;28;20576;-81
2021/06/09 12:20:08;;;;;;;9.00;8.20;;;24.90;1.00;;;;;;5081253;28;21298;-79
2021/06/09 12:22:41;;;;;;;8.83;8.03;;;24.90;1.00;;;;;;5083510;28;20500;-79
2021/06/09 12:25:10;;;;;;;8.53;7.90;;;24.80;1.00;;;;;;5089375;28;20477;-79
2021/06/09 12:27:42;;;;;;;8.10;7.40;;;24.70;1.00;;;;;;5087369;28;20450;-78
2021/06/09 12:30:12;;;;;;;8.73;8.00;;;24.70;99.90;;;;;;5073453;28;20508;-78
2021/06/09 12:32:41;;;;;;;7.70;7.20;;;24.60;1.00;;;;;;5104027;28;20461;-80
2021/06/09 12:35:14;;;;;;;9.00;8.10;;;24.60;99.90;;;;;;5089767;28;20870;-84
2021/06/09 12:37:45;;;;;;;7.47;6.83;;;24.70;99.90;;;;;;5083992;28;20485;-79
2021/06/09 12:40:15;;;;;;;8.33;7.60;;;24.70;99.90;;;;;;5074238;28;20490;-80
2021/06/09 12:42:49;;;;;;;10.33;9.43;;;24.70;99.90;;;;;;5089430;28;20507;-79
2021/06/09 12:45:18;;;;;;;9.03;8.23;;;24.70;1.00;;;;;;5117750;27;20487;-81
2021/06/09 12:47:47;;;;;;;8.70;7.90;;;24.70;1.00;;;;;;5086426;28;20783;-81
2021/06/09 12:50:21;;;;;;;9.10;8.20;;;24.70;1.00;;;;;;5086220;28;20730;-81
2021/06/09 12:52:51;;;;;;;8.20;7.60;;;24.70;1.00;;;;;;5081160;28;20454;-79
2021/06/09 12:55:24;;;;;;;7.77;7.17;;;24.70;1.00;;;;;;5085011;28;20474;-82